Pierce, Idaho
Current Conditions -  °F | °C
As of 2:15 AM on Saturday 25 Oct 2014 (Local Time) from KGIC Reporting Station
Overcast Overcast  
Wind Chill: 44°   Ceiling: 300
Heat Index: 44°   Visibility: 0.25mi
Dew Point: 42°   Wind: 3mph
Humidity: 95%   Direction: 210°SSW
Pressure: 29.93"   Gusts: NA
Location:  46.49°N, 115.8°W
Report Text: KGIC 250915Z AUTO 21003KT 1/4SM OVC003 07/06 A2993 RMK AO1 T00660058
Loading
Personal Weather Stations






























Interactive Weather Map
Tropical Storm Tracking
New forecast layout! Learn more

10-Day Weather Forecast

Advertisements
Track Severe Weather on mobile